Stations météo

réclame
Mon MeteoGroup
Carpentras, France (7586): Température de l'air & dewpoint: 17.08.2019 13:00:00 - 23.08.2019 13:00:00 (CEST)Carpentras, France (7586): Température de l'air 5cm: 17.08.2019 13:00:00 - 23.08.2019 13:00:00 (CEST)Carpentras, France (7586): Vitesse du vent & gusts: 17.08.2019 13:00:00 - 23.08.2019 13:00:00 (CEST)Carpentras, France (7586): Direction du vent: 17.08.2019 13:00:00 - 23.08.2019 13:00:00 (CEST)Carpentras, France (7586): reduced air pressure: 17.08.2019 13:00:00 - 23.08.2019 13:00:00 (CEST)Carpentras, France (7586): Ensoleillement: 17.08.2019 13:00:00 - 23.08.2019 13:00:00 (CEST)Carpentras, France (7586): Quantités de précipitations: 17.08.2019 13:00:00 - 23.08.2019 13:00:00 (CEST)
Date & Time tt [°C] td [°C] tt 5cm [°C] ff [km/h] ff [knt] fx [km/h] fx [knt] dd ppp [hPa] sd [min] rr [mm]
23.08.2019 13:00:00 30,8 13,1 40,4 7 4 18 10 W 1018,9 60 0,0
23.08.2019 12:00:00 29,6 15,0 37,1 5 3 10 5 WNW 1019,3 60 0,0
23.08.2019 11:00:00 26,8 15,2 33,2 5 3 10 5 SSE 1019,4 60 0,0
23.08.2019 10:00:00 23,8 15,3 30,4 4 2 9 5 SSW 1019,9 60 0,0
23.08.2019 09:00:00 20,1 14,5 16,3 0 0 5 3 N 1020,1 60 0,0
23.08.2019 08:00:00 15,3 13,5 12,8 3 1 6 4 ESE 1020,0 44 0,0
23.08.2019 07:00:00 14,3 13,0 12,4 6 3 11 6 ESE 1020,1 0 0,0
23.08.2019 06:00:00 14,7 12,9 12,8 3 1 8 5 ESE 1020,0 0 0,0
23.08.2019 05:00:00 15,4 13,4 13,4 4 2 7 4 ESE 1019,8 0 0,0
23.08.2019 04:00:00 15,6 13,3 13,7 5 3 8 4 ENE 1020,0 0 0,0
23.08.2019 03:00:00 16,4 13,7 14,4 3 2 6 4 SE 1020,0 0 0,0
23.08.2019 02:00:00 17,7 14,2 15,3 3 2 11 6 E 1020,0 0 0,0
23.08.2019 01:00:00 18,0 14,3 15,8 7 4 11 6 ESE 1020,2 0 0,0
23.08.2019 00:00:00 19,2 13,8 16,8 0 0 6 4 N 1020,5 0 0,0
22.08.2019 23:00:00 21,3 13,7 18,3 4 2 10 5 E 1020,4 0 0,0
22.08.2019 22:00:00 23,2 13,7 20,7 5 3 21 11 SSE 1020,5 0 0,0
22.08.2019 21:00:00 26,6 13,3 24,6 12 7 25 13 SSW 1019,6 13 0,0
22.08.2019 20:00:00 29,9 12,3 30,4 5 3 16 9 WSW 1019,3 60 0,0
22.08.2019 19:00:00 31,7 14,4 35,8 8 4 15 8 W 1018,7 56 0,0
22.08.2019 18:00:00 30,7 15,2 30,8 9 5 28 15 WNW 1018,5 26 0,0
22.08.2019 17:00:00 28,8 14,6 30,3 9 5 24 13 W 1018,6 8 0,0
22.08.2019 16:00:00 32,3 14,4 38,2 13 7 29 16 NNW 1018,6 60 0,0
22.08.2019 15:00:00 30,8 14,8 34,6 16 9 25 14 WNW 1018,6 27 0,0
22.08.2019 14:00:00 30,0 14,9 35,1 11 6 22 12 WNW 1019,0 44 0,0
22.08.2019 13:00:00 28,3 14,9 32,2 9 5 16 9 W 1019,5 8 0,0
22.08.2019 12:00:00 26,8 14,5 30,1 4 2 9 5 WNW 1019,8 52 0,0
22.08.2019 11:00:00 24,2 14,0 27,9 3 1 11 6 SW 1020,0 14 0,0
22.08.2019 10:00:00 23,4 13,8 26,1 4 2 8 4 SSE 1019,7 32 0,0
22.08.2019 09:00:00 20,9 13,6 18,9 2 1 6 3 SSW 1019,6 49 0,0
22.08.2019 08:00:00 16,5 13,4 14,9 0 0 5 3 N 1019,6 4 0,0
22.08.2019 07:00:00 15,7 12,8 14,9 4 2 7 4 E 1019,2 0 0,0
22.08.2019 06:00:00 16,0 12,9 15,3 0 0 6 3 N 1018,8 0 0,0
22.08.2019 05:00:00 16,6 12,9 15,7 0 0 3 2 N 1018,7 0 0,0
22.08.2019 04:00:00 17,3 13,0 16,8 3 1 8 4 SE 1018,6 0 0,0
22.08.2019 03:00:00 17,5 13,0 16,5 5 3 9 5 SE 1018,7 0 0,0
22.08.2019 02:00:00 17,8 13,1 16,5 3 1 5 3 SSE 1018,9 0 0,0
22.08.2019 01:00:00 19,2 12,9 17,7 3 2 11 6 SE 1019,0 0 0,0
22.08.2019 00:00:00 20,8 13,0 19,0 6 3 11 6 ENE 1019,1 0 0,0
21.08.2019 23:00:00 21,1 12,8 19,0 4 2 9 5 ENE 1018,8 0 0,0
21.08.2019 22:00:00 21,9 12,4 20,0 5 3 19 10 NNW 1018,6 0 0,0
21.08.2019 21:00:00 23,1 13,0 21,8 8 4 18 10 WNW 1017,9 0 0,0
21.08.2019 20:00:00 25,4 12,9 25,3 8 4 19 10 WNW 1017,3 49 0,0
21.08.2019 19:00:00 28,5 13,2 33,5 9 5 21 12 WNW 1016,6 60 0,0
21.08.2019 18:00:00 29,3 13,5 35,7 11 6 25 13 NW 1017,0 60 0,0
21.08.2019 17:00:00 30,0 13,7 31,9 15 8 31 17 NNW 1017,1 46 0,0
21.08.2019 16:00:00 29,9 13,2 37,3 19 10 32 17 WNW 1017,3 60 0,0
21.08.2019 15:00:00 29,2 13,0 36,4 16 9 31 17 WNW 1017,6 60 0,0
21.08.2019 14:00:00 28,5 12,8 37,0 19 11 32 17 WNW 1018,1 60 0,0
21.08.2019 13:00:00 28,1 12,8 35,8 13 7 23 12 W 1018,0 60 0,0
21.08.2019 12:00:00 26,1 12,5 33,5 7 4 15 8 WNW 1018,6 60 0,0
21.08.2019 11:00:00 24,1 12,1 30,4 4 2 10 6 SSE 1019,3 60 0,0
21.08.2019 10:00:00 21,5 11,5 26,5 2 1 7 4 SSW 1019,5 60 0,0
21.08.2019 09:00:00 17,3 12,0 13,6 0 0 8 4 N 1019,8 60 0,0
21.08.2019 08:00:00 12,6 11,8 10,4 3 2 8 4 ESE 1019,7 49 0,0
21.08.2019 07:00:00 11,5 10,6 9,9 5 3 8 5 SE 1019,3 0 0,0
21.08.2019 06:00:00 11,9 10,8 10,3 4 2 9 5 SE 1019,1 0 0,0
21.08.2019 05:00:00 12,4 11,3 10,5 3 1 8 4 SE 1019,0 0 0,0
21.08.2019 04:00:00 12,9 11,6 11,1 5 3 8 4 SE 1019,2 0 0,0
21.08.2019 03:00:00 13,6 11,8 12,2 3 2 9 5 SE 1019,1 0 0,0
21.08.2019 02:00:00 14,3 12,0 12,5 4 2 8 4 SE 1019,3 0 0,0
21.08.2019 01:00:00 15,6 12,0 13,3 0 0 5 3 N 1019,4 0 0,0
21.08.2019 00:00:00 18,3 12,1 16,0 4 2 27 15 NE 1019,4 0 0,0
20.08.2019 23:00:00 18,9 12,4 17,7 14 8 34 18 N 1019,5 0 0,0
20.08.2019 22:00:00 18,7 12,9 17,9 11 6 36 19 NNW 1019,5 0 0,0
20.08.2019 21:00:00 19,5 12,5 18,9 13 7 24 13 NW 1019,0 24 0,0
20.08.2019 20:00:00 22,6 13,9 22,9 9 5 22 12 WNW 1018,5 36 0,0
20.08.2019 19:00:00 21,4 13,8 21,4 7 4 37 20 NNW 1019,3 0 0,0
20.08.2019 18:00:00 20,9 14,1 22,0 16 9 28 15 WNW 1019,6 0 0,0
20.08.2019 17:00:00 22,4 14,8 23,8 8 4 24 13 NNE 1019,5 0 0,0
20.08.2019 16:00:00 21,8 14,9 23,7 7 4 18 10 WNW 1019,9 0 0,0
20.08.2019 15:00:00 21,4 14,5 22,7 9 5 32 17 WNW 1020,0 0 0,0
20.08.2019 14:00:00 21,8 14,4 24,8 16 8 29 15 WNW 1019,2 0 0,0
20.08.2019 13:00:00 23,2 14,7 27,2 14 8 29 16 WNW 1019,0 2 0,0
20.08.2019 12:00:00 22,1 14,7 26,7 16 8 30 16 WNW 1018,9 7 0,0
20.08.2019 11:00:00 22,6 14,9 26,7 14 8 24 13 WNW 1018,7 20 0,0
20.08.2019 10:00:00 22,1 15,7 22,4 3 1 9 5 SW 1017,9 5 0,0
20.08.2019 09:00:00 20,0 15,4 19,6 0 0 7 4 N 1018,0 0 0,0
20.08.2019 08:00:00 19,0 16,0 18,1 3 2 7 4 NNW 1017,7 0 0,0
20.08.2019 07:00:00 19,0 15,3 18,5 4 2 9 5 SSE 1017,0 0 0,0
20.08.2019 06:00:00 19,6 14,4 19,1 5 3 12 7 W 1017,0 0 0,0
20.08.2019 05:00:00 20,1 15,1 20,0 0 0 13 7 N 1017,5 0 0,0
20.08.2019 04:00:00 20,1 15,1 19,8 4 2 8 4 E 1017,7 0 0,0
20.08.2019 03:00:00 20,2 15,2 19,8 2 1 7 4 WSW 1017,5 0 0,0
20.08.2019 02:00:00 20,8 15,3 20,6 4 2 9 5 ENE 1017,8 0 0,0
20.08.2019 01:00:00 21,3 15,2 21,2 5 3 16 9 S 1018,1 0 0,0
20.08.2019 00:00:00 21,6 15,2 21,4 4 2 8 5 NW 1018,6 0 0,0
19.08.2019 23:00:00 22,3 15,4 22,0 7 4 20 11 SSW 1017,9 0 0,0
19.08.2019 22:00:00 23,1 15,2 22,1 6 4 15 8 WSW 1018,1 0 0,0
19.08.2019 21:00:00 24,7 15,6 24,2 5 3 18 10 WSW 1016,8 0 0,0
19.08.2019 20:00:00 28,5 17,4 28,5 4 2 13 7 SW 1016,1 5 0,0
19.08.2019 19:00:00 29,8 16,9 31,7 5 3 16 9 SW 1015,9 23 0,0
19.08.2019 18:00:00 30,7 16,7 34,1 4 2 14 8 WSW 1015,8 33 0,0
19.08.2019 17:00:00 30,5 16,9 31,5 5 3 10 6 WSW 1015,9 13 0,0
19.08.2019 16:00:00 29,2 15,3 32,3 5 3 13 7 NW 1015,8 2 0,0
19.08.2019 15:00:00 29,7 16,1 31,9 6 3 16 9 WSW 1016,3 1 0,0
19.08.2019 14:00:00 29,7 16,5 35,7 6 3 15 8 W 1016,0 19 0,0
19.08.2019 13:00:00 29,3 17,8 34,2 7 4 18 10 W 1016,3 18 0,0
19.08.2019 12:00:00 28,0 17,2 35,3 7 4 15 8 W 1016,5 30 0,0
19.08.2019 11:00:00 27,2 18,2 30,8 5 3 15 8 W 1016,7 29 0,0
19.08.2019 10:00:00 26,2 17,3 29,2 5 3 8 4 W 1016,4 49 0,0
19.08.2019 09:00:00 23,4 16,7 20,6 3 1 6 4 E 1016,7 55 0,0
19.08.2019 08:00:00 19,2 15,5 17,2 6 3 14 7 SE 1016,2 4 0,0
19.08.2019 07:00:00 17,6 14,3 17,0 0 0 8 4 N 1016,2 0 0,0
19.08.2019 06:00:00 18,0 14,3 16,3 4 2 13 7 E 1015,9 0 0,0
19.08.2019 05:00:00 16,9 14,4 15,8 6 3 12 6 E 1016,4 0 0,0
19.08.2019 04:00:00 17,0 15,0 15,7 4 2 7 4 SE 1016,4 0 0,0
19.08.2019 03:00:00 17,4 14,9 16,1 3 1 9 5 ESE 1016,2 0 0,0
19.08.2019 02:00:00 18,4 15,3 16,8 7 4 11 6 E 1016,2 0 0,0
19.08.2019 01:00:00 18,8 16,2 17,2 3 2 5 3 SE 1016,6 0 0,0
19.08.2019 00:00:00 20,0 16,8 18,0 3 1 4 2 NE 1016,6 0 0,0
18.08.2019 23:00:00 21,4 17,4 19,2 0 0 7 4 N 1016,1 0 0,0
18.08.2019 22:00:00 22,9 17,1 20,4 4 2 9 5 W 1015,3 0 0,0
18.08.2019 21:00:00 24,6 16,1 22,1 2 1 18 10 WSW 1014,0 0 0,0
18.08.2019 20:00:00 28,0 15,3 27,2 9 5 23 12 SW 1013,6 52 0,0
18.08.2019 19:00:00 30,4 15,3 35,0 11 6 34 18 SW 1013,3 60 0,0
18.08.2019 18:00:00 32,1 16,0 37,5 14 7 35 19 WSW 1012,9 60 0,0
18.08.2019 17:00:00 34,9 13,7 39,1 14 8 30 16 SSW 1012,5 60 0,0
18.08.2019 16:00:00 34,3 15,7 43,4 11 6 29 16 WSW 1013,1 60 0,0
18.08.2019 15:00:00 34,4 16,7 42,3 11 6 32 17 WSW 1013,2 60 0,0
18.08.2019 14:00:00 33,2 17,0 42,4 9 5 27 15 SW 1013,6 60 0,0
18.08.2019 13:00:00 31,7 16,0 40,6 8 4 22 12 SW 1014,3 60 0,0
18.08.2019 12:00:00 30,4 16,4 39,0 8 4 17 9 SSW 1014,7 60 0,0
18.08.2019 11:00:00 27,9 16,2 35,1 8 4 16 9 SW 1015,0 60 0,0
18.08.2019 10:00:00 24,4 15,6 30,7 5 3 10 5 WNW 1015,2 60 0,0
18.08.2019 09:00:00 20,8 15,8 18,6 6 3 9 5 WNW 1015,2 60 0,0
18.08.2019 08:00:00 17,4 14,1 15,5 3 1 6 3 WNW 1014,8 35 0,0
18.08.2019 07:00:00 16,4 13,9 15,2 6 3 8 5 S 1014,4 0 0,0
18.08.2019 06:00:00 16,6 14,4 15,1 5 3 10 6 E 1014,6 0 0,0
18.08.2019 05:00:00 17,0 15,3 15,3 2 1 11 6 E 1014,9 0 0,0
18.08.2019 04:00:00 17,8 16,3 16,2 5 3 10 5 E 1015,3 0 0,0
18.08.2019 03:00:00 18,8 17,8 16,5 4 2 9 5 ESE 1015,5 0 0,0
18.08.2019 02:00:00 19,3 18,1 16,9 3 2 8 4 ESE 1016,0 0 0,0
18.08.2019 01:00:00 20,2 18,7 18,0 3 2 7 4 E 1016,1 0 0,0
18.08.2019 00:00:00 20,9 18,8 18,8 2 1 6 4 E 1016,3 0 0,0
17.08.2019 23:00:00 22,2 19,6 20,0 0 0 18 10 N 1016,1 0 0,0
17.08.2019 22:00:00 23,5 19,4 21,2 9 5 22 12 SSW 1015,9 0 0,0
17.08.2019 21:00:00 25,9 17,5 22,0 6 4 19 10 SSW 1014,8 24 0,0
17.08.2019 20:00:00 29,9 14,8 28,4 9 5 23 13 SSW 1014,4 60 0,0
17.08.2019 19:00:00 31,9 12,7 37,4 11 6 26 14 SW 1014,1 60 0,0
17.08.2019 18:00:00 33,5 14,5 40,1 11 6 26 14 S 1014,0 60 0,0
17.08.2019 17:00:00 34,6 12,9 40,5 10 6 28 15 SSW 1014,0 60 0,0
17.08.2019 16:00:00 35,1 14,4 43,9 12 6 26 14 SW 1014,2 60 0,0
17.08.2019 15:00:00 34,4 11,5 39,2 9 5 24 13 SW 1014,6 60 0,0
17.08.2019 14:00:00 32,1 10,7 36,7 9 5 19 11 S 1015,3 57 0,0
17.08.2019 13:00:00 30,5 11,9 36,7 7 4 14 7 S 1016,1 60 0,0

tt = Température de l'air
td = dewpoint
tt 5cm = Température de l'air 5cm
ff = Vitesse du vent
fx = gusts
dd = Direction du vent
ppp = reduced air pressure
sd = Ensoleillement
rr = Quantités de précipitations

stations d'obs. à proximité